Ana Sayfa
METAR-TAF:

METAR-TAF

Havaalanları :

Casino, Avustralya

Enlem: 28-52-39S, Boylam: 153-03-07E, yükseklik: 21 m

Güncel hava durumu gözlemi

Rapor saat 06:00 UTC de 39 dakika önce yapıldı.
Rüzgar kuzeydan 5 kt
Sıcaklık 24°C
Nem 24%
Basınç 1017 hPa

METAR: YCAS 240600Z AUTO 36005KT //// // ////// 24/02 Q1017

Saat: 16:39 (06:39 UTC)


TAF: eksik

4.000'den fazla havaalanı için hava durumu gözlemleri ve tahminleri (METAR ve TAF raporları).

Kullanılabilir istasyonlar harita üzerinde sarı ve kırmızı noktalarla gösterilir.

İstasyonun adını görmek için fareyi noktanın üzerinde gezdirin.

Sonrasında hava gözlem ve tahminlerini görmek için tıklayın.

Haritayı değiştirmek için: yaklaştırmak için siyah artı işaretli yeşil düğmeye ve uzaklaştırmak için de eksi işaretli düğmeye hızla tıklayın; bitişik haritalar için yeşil okları kullanın.


METAR-TAF: